Paso Robles Municipal Airport
KPRB : now visible

Airfield :











YOU CAN JOIN US ON...

 
LOGIN :

Register | Disclaimer

   EN    FR    IT 

 









Legend :    VFR   Marginal VFR   IFR   Intensive IFR   Very Intensive IFR
Visi :
Ceiling :
>= 8 km
>= 3000ft
5 to 8 km
1000 to 3000 ft
1500m to 5 km
500 to 1000 ft
800 to 1500m
200 to 500 ft
< 800m
< 200 ft
Symbols :   Thunderstorms  Fog  Heavy snow  Heavy precipitations  Wind > 20 kt






- Airport Elevation : 840 ft


KPRB - Paso Robles Municipal

CURRENT METAR :
  • 051953Z AUTO 22008KT 10SM FEW024 OVC038 16/12 A3009 RMK AO2 SLP187 T01610117 $

EXPIRED METARs :
  • 051853Z AUTO 10SM SCT033 BKN043 16/11 A3012 RMK AO2 SLP196 T01560106 $
  • 051753Z AUTO 09004KT 10SM FEW029 14/09 A3012 RMK AO2 SLP199 T01440094 10144 20100 51019 $

TAF KPRB
Valid from the 05 at 18:00 until the 06 at 18:00 UTC


051720Z 0518/0618 VRB03KT P6SM BKN050 BKN150
FM052100 17007KT P6SM SCT050 BKN150
FM060300 VRB03KT P6SM BKN150
FM061000 VRB03KT P6SM VCSH BKN025 OVC050



MET'MAP, your aeronautical weather chart ! - Copyright ORBIFLY December 2007 - Disclaimer

ORBIFLY MET'MAP TEAM :

Programming & Development : Alexandra Zaïnal
Concept & original design : Baudouin d'Aumeries
Assistance for programming : Marc-Olivier Méhu
Technical & hardware support : Manuel Goepfert

Contact : metmap@orbifly.com




SOURCES & CREDITS :

   NOAA       Earth
Advisory